AJT106 SVMI-SVVG
Flight info
| Callsign | AJT106 |
|---|---|
| Flight time | 0h 51m |
| Altitude | 28000 |
| Route | MARES1 MARES A315 ATONO G427 PBL W9 MULCA W24 BRM W40 ERIXO W41 GUAYA |
| Aircraft | B78X/H-SDE1E2E3FGHIJ2J3J4J5M1RWXY/LB1D1 |
Departure
| Time | 2026-04-23 16:07 |
|---|---|
| Airport | Maiquetía Simón Bolívar International Airport (SVMI) |
Arrival
| Time | 2026-04-23 16:58 |
|---|---|
| Airport | Juan Pablo Pérez Alfonso Airport (SVVG) |
| Time | Latitude | Longitude | Altitude | Speed | Heading |
|---|---|---|---|---|---|
| 2026-04-23 15:49 | 10.59839 | -67.00337 | 239 ft | 0 kts | 178° |
| 2026-04-23 15:56 | 10.59851 | -67.00337 | 239 ft | 7 kts | 178° |
| 2026-04-23 15:56 | 10.59878 | -67.00338 | 239 ft | 6 kts | 181° |
| 2026-04-23 15:56 | 10.59904 | -67.00333 | 239 ft | 6 kts | 210° |
| 2026-04-23 15:57 | 10.59922 | -67.00316 | 239 ft | 6 kts | 247° |
| 2026-04-23 15:57 | 10.59926 | -67.00301 | 239 ft | 3 kts | 267° |
| 2026-04-23 16:01 | 10.59923 | -67.00376 | 239 ft | 16 kts | 272° |
| 2026-04-23 16:02 | 10.59987 | -67.00420 | 240 ft | 8 kts | 17° |
| 2026-04-23 16:02 | 10.59997 | -67.00399 | 239 ft | 3 kts | 81° |
| 2026-04-23 16:02 | 10.60000 | -67.00350 | 239 ft | 11 kts | 86° |
| 2026-04-23 16:02 | 10.60045 | -67.00303 | 238 ft | 10 kts | 19° |
| 2026-04-23 16:03 | 10.60101 | -67.00263 | 238 ft | 10 kts | 59° |
| 2026-04-23 16:03 | 10.60117 | -67.00191 | 237 ft | 11 kts | 80° |
| 2026-04-23 16:03 | 10.60121 | -67.00105 | 236 ft | 13 kts | 92° |
| 2026-04-23 16:03 | 10.60121 | -67.00009 | 235 ft | 14 kts | 89° |
| 2026-04-23 16:04 | 10.60133 | -66.99901 | 236 ft | 16 kts | 82° |
| 2026-04-23 16:04 | 10.60139 | -66.99769 | 225 ft | 18 kts | 88° |
| 2026-04-23 16:04 | 10.60118 | -66.99678 | 228 ft | 9 kts | 143° |
| 2026-04-23 16:04 | 10.60081 | -66.99669 | 229 ft | 2 kts | 170° |
| 2026-04-23 16:05 | 10.60078 | -66.99668 | 227 ft | 0 kts | 170° |
| 2026-04-23 16:05 | 10.60022 | -66.99660 | 236 ft | 17 kts | 172° |
| 2026-04-23 16:05 | 10.59922 | -66.99629 | 240 ft | 8 kts | 126° |
| 2026-04-23 16:05 | 10.59919 | -66.99587 | 231 ft | 0 kts | 80° |
| 2026-04-23 16:06 | 10.59920 | -66.99584 | 231 ft | 6 kts | 80° |
| 2026-04-23 16:06 | 10.59985 | -66.99304 | 215 ft | 80 kts | 76° |
| 2026-04-23 16:07 | 10.60186 | -66.98483 | 176 ft | 162 kts | 77° |
| 2026-04-23 16:07 | 10.60549 | -66.97307 | 1045 ft | 175 kts | 69° |
| 2026-04-23 16:07 | 10.61184 | -66.96182 | 1876 ft | 189 kts | 37° |
| 2026-04-23 16:07 | 10.62459 | -66.95860 | 2807 ft | 205 kts | 348° |
| 2026-04-23 16:08 | 10.63711 | -66.96626 | 3800 ft | 226 kts | 314° |
| 2026-04-23 16:08 | 10.64399 | -66.98098 | 4826 ft | 242 kts | 284° |
| 2026-04-23 16:08 | 10.64800 | -66.99824 | 5938 ft | 260 kts | 281° |
| 2026-04-23 16:08 | 10.65189 | -67.01686 | 7080 ft | 275 kts | 281° |
| 2026-04-23 16:09 | 10.65586 | -67.03604 | 8461 ft | 279 kts | 281° |
| 2026-04-23 16:09 | 10.66311 | -67.05432 | 9849 ft | 285 kts | 303° |
| 2026-04-23 16:09 | 10.67547 | -67.07070 | 10872 ft | 301 kts | 307° |
| 2026-04-23 16:09 | 10.68926 | -67.08766 | 11751 ft | 321 kts | 308° |
| 2026-04-23 16:10 | 10.70397 | -67.10576 | 12569 ft | 342 kts | 308° |
| 2026-04-23 16:10 | 10.71938 | -67.12516 | 13354 ft | 363 kts | 307° |
| 2026-04-23 16:10 | 10.73347 | -67.14687 | 14238 ft | 374 kts | 292° |
| 2026-04-23 16:10 | 10.73949 | -67.17276 | 15150 ft | 382 kts | 272° |
| 2026-04-23 16:11 | 10.73648 | -67.19978 | 16081 ft | 391 kts | 253° |
| 2026-04-23 16:11 | 10.72529 | -67.22523 | 16980 ft | 399 kts | 240° |
| 2026-04-23 16:11 | 10.71069 | -67.24956 | 17889 ft | 408 kts | 237° |
| 2026-04-23 16:11 | 10.69588 | -67.27450 | 18673 ft | 417 kts | 239° |
| 2026-04-23 16:12 | 10.68237 | -67.30083 | 19455 ft | 424 kts | 244° |
| 2026-04-23 16:12 | 10.67208 | -67.32862 | 20268 ft | 429 kts | 253° |
| 2026-04-23 16:12 | 10.66522 | -67.35829 | 21068 ft | 435 kts | 258° |
| 2026-04-23 16:12 | 10.65956 | -67.38866 | 21919 ft | 436 kts | 258° |
| 2026-04-23 16:13 | 10.65292 | -67.41859 | 23072 ft | 432 kts | 254° |
| 2026-04-23 16:13 | 10.63673 | -67.47702 | 24996 ft | 426 kts | 254° |
| 2026-04-23 16:13 | 10.62965 | -67.50617 | 25947 ft | 423 kts | 255° |
| 2026-04-23 16:14 | 10.62263 | -67.53513 | 26901 ft | 420 kts | 254° |
| 2026-04-23 16:14 | 10.61522 | -67.56390 | 27677 ft | 422 kts | 254° |
| 2026-04-23 16:14 | 10.60774 | -67.59268 | 27991 ft | 419 kts | 254° |
| 2026-04-23 16:14 | 10.60047 | -67.62136 | 27987 ft | 418 kts | 254° |
| 2026-04-23 16:15 | 10.59316 | -67.65046 | 27994 ft | 435 kts | 254° |
| 2026-04-23 16:15 | 10.58541 | -67.68092 | 28002 ft | 455 kts | 254° |
| 2026-04-23 16:15 | 10.57729 | -67.71264 | 28009 ft | 473 kts | 254° |
| 2026-04-23 16:15 | 10.56892 | -67.74556 | 28007 ft | 487 kts | 254° |
| 2026-04-23 16:16 | 10.55194 | -67.81241 | 28001 ft | 489 kts | 254° |
| 2026-04-23 16:16 | 10.53495 | -67.87898 | 28001 ft | 490 kts | 254° |
| 2026-04-23 16:17 | 10.51787 | -67.94598 | 27999 ft | 490 kts | 254° |
| 2026-04-23 16:17 | 10.50931 | -67.97950 | 27999 ft | 490 kts | 254° |
| 2026-04-23 16:17 | 10.50075 | -68.01298 | 28004 ft | 490 kts | 254° |
| 2026-04-23 16:18 | 10.49217 | -68.04658 | 27998 ft | 492 kts | 254° |
| 2026-04-23 16:18 | 10.48388 | -68.08032 | 28004 ft | 492 kts | 258° |
| 2026-04-23 16:18 | 10.47302 | -68.14904 | 28003 ft | 493 kts | 260° |
| 2026-04-23 16:19 | 10.46222 | -68.21775 | 27992 ft | 491 kts | 260° |
| 2026-04-23 16:19 | 10.45682 | -68.25202 | 27994 ft | 491 kts | 260° |
| 2026-04-23 16:19 | 10.45144 | -68.28626 | 27992 ft | 491 kts | 260° |
| 2026-04-23 16:20 | 10.44605 | -68.32047 | 27992 ft | 490 kts | 260° |
| 2026-04-23 16:20 | 10.44065 | -68.35472 | 27992 ft | 491 kts | 260° |
| 2026-04-23 16:20 | 10.43523 | -68.38896 | 27993 ft | 491 kts | 259° |
| 2026-04-23 16:20 | 10.42633 | -68.42233 | 27996 ft | 489 kts | 248° |
| 2026-04-23 16:21 | 10.39702 | -68.48457 | 27996 ft | 489 kts | 241° |
| 2026-04-23 16:21 | 10.38146 | -68.51523 | 27994 ft | 489 kts | 243° |
| 2026-04-23 16:21 | 10.36809 | -68.54704 | 27997 ft | 490 kts | 248° |
| 2026-04-23 16:22 | 10.35641 | -68.57958 | 27995 ft | 490 kts | 249° |
| 2026-04-23 16:22 | 10.34415 | -68.61187 | 27989 ft | 490 kts | 246° |
| 2026-04-23 16:22 | 10.33060 | -68.64358 | 27989 ft | 489 kts | 245° |
| 2026-04-23 16:22 | 10.31717 | -68.67536 | 27990 ft | 489 kts | 246° |
| 2026-04-23 16:23 | 10.30448 | -68.70742 | 27989 ft | 489 kts | 247° |
| 2026-04-23 16:23 | 10.29184 | -68.73951 | 27990 ft | 489 kts | 246° |
| 2026-04-23 16:23 | 10.27878 | -68.77142 | 27994 ft | 490 kts | 246° |
| 2026-04-23 16:23 | 10.26563 | -68.80329 | 27995 ft | 490 kts | 246° |
| 2026-04-23 16:24 | 10.25266 | -68.83531 | 27995 ft | 490 kts | 246° |
| 2026-04-23 16:24 | 10.23976 | -68.86742 | 27994 ft | 491 kts | 246° |
| 2026-04-23 16:24 | 10.22679 | -68.89937 | 27992 ft | 489 kts | 246° |
| 2026-04-23 16:24 | 10.21375 | -68.93130 | 27992 ft | 490 kts | 246° |
| 2026-04-23 16:25 | 10.20073 | -68.96331 | 27993 ft | 490 kts | 246° |
| 2026-04-23 16:25 | 10.18776 | -68.99534 | 27991 ft | 490 kts | 246° |
| 2026-04-23 16:25 | 10.17477 | -69.02730 | 27990 ft | 490 kts | 246° |
| 2026-04-23 16:25 | 10.16176 | -69.05926 | 27995 ft | 490 kts | 246° |
| 2026-04-23 16:26 | 10.14875 | -69.09121 | 27990 ft | 490 kts | 246° |
| 2026-04-23 16:26 | 10.13575 | -69.12318 | 27989 ft | 490 kts | 246° |
| 2026-04-23 16:26 | 10.12275 | -69.15512 | 27990 ft | 490 kts | 246° |
| 2026-04-23 16:26 | 10.10976 | -69.18703 | 27989 ft | 489 kts | 246° |
| 2026-04-23 16:27 | 10.09676 | -69.21892 | 27991 ft | 489 kts | 246° |
| 2026-04-23 16:27 | 10.08379 | -69.25076 | 27990 ft | 488 kts | 246° |
| 2026-04-23 16:27 | 10.07079 | -69.28266 | 27995 ft | 489 kts | 246° |
| 2026-04-23 16:27 | 10.05781 | -69.31450 | 27996 ft | 489 kts | 246° |
| 2026-04-23 16:28 | 10.04482 | -69.34633 | 27995 ft | 488 kts | 246° |
| 2026-04-23 16:28 | 10.03188 | -69.37822 | 27995 ft | 489 kts | 247° |
| 2026-04-23 16:28 | 10.01916 | -69.41018 | 27994 ft | 489 kts | 247° |
| 2026-04-23 16:28 | 10.00644 | -69.44218 | 27995 ft | 489 kts | 247° |
| 2026-04-23 16:29 | 9.99367 | -69.47396 | 27995 ft | 489 kts | 247° |
| 2026-04-23 16:29 | 9.98076 | -69.50598 | 27995 ft | 489 kts | 247° |
| 2026-04-23 16:29 | 9.96796 | -69.53789 | 27992 ft | 488 kts | 247° |
| 2026-04-23 16:29 | 9.95518 | -69.56983 | 27992 ft | 488 kts | 247° |
| 2026-04-23 16:30 | 9.94240 | -69.60170 | 27990 ft | 488 kts | 247° |
| 2026-04-23 16:30 | 9.92956 | -69.63363 | 27993 ft | 488 kts | 247° |
| 2026-04-23 16:30 | 9.90386 | -69.69760 | 28001 ft | 490 kts | 247° |
| 2026-04-23 16:31 | 9.87815 | -69.76156 | 28002 ft | 490 kts | 247° |
| 2026-04-23 16:31 | 9.85241 | -69.82554 | 28002 ft | 490 kts | 247° |
| 2026-04-23 16:32 | 9.82683 | -69.88910 | 28003 ft | 489 kts | 247° |
| 2026-04-23 16:32 | 9.80525 | -69.94265 | 28026 ft | 490 kts | 247° |
| 2026-04-23 16:33 | 9.77962 | -70.00608 | 28024 ft | 490 kts | 246° |
| 2026-04-23 16:33 | 9.75328 | -70.06970 | 28019 ft | 488 kts | 246° |
| 2026-04-23 16:34 | 9.72280 | -70.14414 | 28018 ft | 488 kts | 246° |
| 2026-04-23 16:34 | 9.70098 | -70.19705 | 28021 ft | 490 kts | 246° |
| 2026-04-23 16:35 | 9.67472 | -70.26094 | 28027 ft | 491 kts | 246° |
| 2026-04-23 16:35 | 9.64840 | -70.32482 | 28028 ft | 491 kts | 246° |
| 2026-04-23 16:36 | 9.62212 | -70.38864 | 28006 ft | 491 kts | 246° |
| 2026-04-23 16:36 | 9.59588 | -70.45229 | 28007 ft | 489 kts | 246° |
| 2026-04-23 16:37 | 9.58286 | -70.48397 | 27984 ft | 488 kts | 246° |
| 2026-04-23 16:37 | 9.56983 | -70.51581 | 27987 ft | 490 kts | 246° |
| 2026-04-23 16:37 | 9.54365 | -70.57960 | 28001 ft | 492 kts | 246° |
| 2026-04-23 16:38 | 9.53058 | -70.61140 | 27976 ft | 489 kts | 246° |
| 2026-04-23 16:38 | 9.51651 | -70.64283 | 27983 ft | 490 kts | 239° |
| 2026-04-23 16:38 | 9.49715 | -70.67054 | 27983 ft | 487 kts | 228° |
| 2026-04-23 16:38 | 9.47403 | -70.69561 | 27977 ft | 488 kts | 225° |
| 2026-04-23 16:39 | 9.45063 | -70.72052 | 27979 ft | 488 kts | 227° |
| 2026-04-23 16:39 | 9.42808 | -70.74613 | 27986 ft | 488 kts | 228° |
| 2026-04-23 16:39 | 9.40574 | -70.77204 | 27986 ft | 487 kts | 228° |
| 2026-04-23 16:39 | 9.38310 | -70.79744 | 27725 ft | 486 kts | 227° |
| 2026-04-23 16:40 | 9.36024 | -70.82264 | 27357 ft | 486 kts | 227° |
| 2026-04-23 16:40 | 9.33763 | -70.84791 | 26792 ft | 481 kts | 227° |
| 2026-04-23 16:40 | 9.31549 | -70.87301 | 26059 ft | 475 kts | 227° |
| 2026-04-23 16:40 | 9.29357 | -70.89769 | 25368 ft | 469 kts | 227° |
| 2026-04-23 16:41 | 9.27175 | -70.92204 | 24661 ft | 463 kts | 227° |
| 2026-04-23 16:41 | 9.25029 | -70.94605 | 23950 ft | 458 kts | 227° |
| 2026-04-23 16:41 | 9.22907 | -70.96989 | 23185 ft | 454 kts | 227° |
| 2026-04-23 16:41 | 9.20805 | -70.99348 | 22340 ft | 449 kts | 227° |
| 2026-04-23 16:42 | 9.18723 | -71.01679 | 21534 ft | 444 kts | 227° |
| 2026-04-23 16:42 | 9.16666 | -71.03982 | 20814 ft | 438 kts | 227° |
| 2026-04-23 16:42 | 9.14632 | -71.06258 | 20065 ft | 433 kts | 227° |
| 2026-04-23 16:42 | 9.12625 | -71.08510 | 19328 ft | 428 kts | 227° |
| 2026-04-23 16:43 | 9.10643 | -71.10732 | 18615 ft | 423 kts | 227° |
| 2026-04-23 16:43 | 9.08750 | -71.12850 | 17869 ft | 418 kts | 227° |
| 2026-04-23 16:43 | 9.06812 | -71.15018 | 17056 ft | 413 kts | 227° |
| 2026-04-23 16:43 | 9.04896 | -71.17163 | 16239 ft | 408 kts | 227° |
| 2026-04-23 16:44 | 9.03002 | -71.19283 | 15501 ft | 403 kts | 227° |
| 2026-04-23 16:44 | 9.01135 | -71.21372 | 14751 ft | 398 kts | 227° |
| 2026-04-23 16:44 | 8.99290 | -71.23435 | 14004 ft | 393 kts | 227° |
| 2026-04-23 16:44 | 8.97464 | -71.25478 | 13189 ft | 389 kts | 227° |
| 2026-04-23 16:45 | 8.95663 | -71.27493 | 12357 ft | 385 kts | 227° |
| 2026-04-23 16:45 | 8.93889 | -71.29476 | 11846 ft | 373 kts | 227° |
| 2026-04-23 16:45 | 8.92180 | -71.31386 | 11486 ft | 358 kts | 227° |
| 2026-04-23 16:45 | 8.90543 | -71.33216 | 11173 ft | 344 kts | 227° |
| 2026-04-23 16:46 | 8.88972 | -71.34972 | 10929 ft | 329 kts | 227° |
| 2026-04-23 16:46 | 8.87468 | -71.36653 | 10719 ft | 315 kts | 228° |
| 2026-04-23 16:46 | 8.86030 | -71.38259 | 10584 ft | 302 kts | 228° |
| 2026-04-23 16:46 | 8.84622 | -71.39836 | 10456 ft | 302 kts | 229° |
| 2026-04-23 16:47 | 8.83229 | -71.41404 | 10341 ft | 303 kts | 229° |
| 2026-04-23 16:47 | 8.81819 | -71.42980 | 10262 ft | 301 kts | 229° |
| 2026-04-23 16:47 | 8.80414 | -71.44545 | 10139 ft | 299 kts | 229° |
| 2026-04-23 16:47 | 8.79132 | -71.46188 | 10028 ft | 296 kts | 234° |
| 2026-04-23 16:48 | 8.77849 | -71.47816 | 9845 ft | 296 kts | 231° |
| 2026-04-23 16:48 | 8.76550 | -71.49419 | 9711 ft | 294 kts | 232° |
| 2026-04-23 16:48 | 8.75284 | -71.51038 | 9603 ft | 292 kts | 233° |
| 2026-04-23 16:48 | 8.74045 | -71.52646 | 9547 ft | 289 kts | 233° |
| 2026-04-23 16:49 | 8.73227 | -71.53698 | 9475 ft | 282 kts | 232° |
| 2026-04-23 16:49 | 8.71634 | -71.55719 | 8961 ft | 269 kts | 231° |
| 2026-04-23 16:49 | 8.70490 | -71.57183 | 8652 ft | 263 kts | 231° |
| 2026-04-23 16:49 | 8.69369 | -71.58623 | 8289 ft | 259 kts | 231° |
| 2026-04-23 16:50 | 8.68263 | -71.60042 | 8004 ft | 253 kts | 231° |
| 2026-04-23 16:50 | 8.67178 | -71.61431 | 7979 ft | 254 kts | 231° |
| 2026-04-23 16:50 | 8.66097 | -71.62817 | 7979 ft | 253 kts | 231° |
| 2026-04-23 16:50 | 8.65010 | -71.64210 | 7975 ft | 252 kts | 231° |
| 2026-04-23 16:51 | 8.63925 | -71.65599 | 7979 ft | 252 kts | 231° |
| 2026-04-23 16:51 | 8.62839 | -71.66990 | 8002 ft | 252 kts | 231° |
| 2026-04-23 16:51 | 8.61809 | -71.68422 | 7783 ft | 253 kts | 239° |
| 2026-04-23 16:51 | 8.60853 | -71.69900 | 7289 ft | 256 kts | 235° |
| 2026-04-23 16:52 | 8.59825 | -71.71372 | 6800 ft | 255 kts | 235° |
| 2026-04-23 16:52 | 8.58833 | -71.72838 | 6297 ft | 251 kts | 236° |
| 2026-04-23 16:52 | 8.57874 | -71.74289 | 5804 ft | 248 kts | 237° |
| 2026-04-23 16:52 | 8.56913 | -71.75736 | 5355 ft | 246 kts | 237° |
| 2026-04-23 16:53 | 8.55974 | -71.77142 | 4856 ft | 235 kts | 237° |
| 2026-04-23 16:53 | 8.55087 | -71.78470 | 4377 ft | 223 kts | 237° |
| 2026-04-23 16:53 | 8.54273 | -71.79781 | 4007 ft | 216 kts | 246° |
| 2026-04-23 16:53 | 8.54248 | -71.81209 | 3790 ft | 201 kts | 292° |
| 2026-04-23 16:54 | 8.55175 | -71.82194 | 3468 ft | 197 kts | 336° |
| 2026-04-23 16:54 | 8.56488 | -71.82516 | 3169 ft | 192 kts | 347° |
| 2026-04-23 16:54 | 8.57756 | -71.82893 | 2881 ft | 187 kts | 346° |
| 2026-04-23 16:54 | 8.59014 | -71.82835 | 2626 ft | 176 kts | 13° |
| 2026-04-23 16:55 | 8.60034 | -71.82230 | 2559 ft | 165 kts | 41° |
| 2026-04-23 16:55 | 8.60413 | -71.81162 | 2529 ft | 170 kts | 84° |
| 2026-04-23 16:55 | 8.60589 | -71.79994 | 2401 ft | 170 kts | 76° |
| 2026-04-23 16:55 | 8.60780 | -71.78831 | 2187 ft | 169 kts | 79° |
| 2026-04-23 16:56 | 8.60960 | -71.77666 | 1976 ft | 167 kts | 80° |
| 2026-04-23 16:56 | 8.61123 | -71.76518 | 1725 ft | 162 kts | 80° |
| 2026-04-23 16:56 | 8.61290 | -71.75349 | 1540 ft | 172 kts | 80° |
| 2026-04-23 16:56 | 8.61454 | -71.74191 | 1380 ft | 159 kts | 81° |
| 2026-04-23 16:57 | 8.61607 | -71.73023 | 1167 ft | 172 kts | 80° |
| 2026-04-23 16:57 | 8.61762 | -71.71870 | 862 ft | 165 kts | 79° |
| 2026-04-23 16:57 | 8.61935 | -71.70710 | 690 ft | 169 kts | 80° |
| 2026-04-23 16:57 | 8.62097 | -71.69533 | 458 ft | 169 kts | 80° |
| 2026-04-23 16:58 | 8.62256 | -71.68384 | 291 ft | 159 kts | 79° |
| 2026-04-23 16:58 | 8.62384 | -71.67475 | 272 ft | 97 kts | 82° |
| 2026-04-23 16:58 | 8.62459 | -71.66954 | 274 ft | 53 kts | 82° |
| 2026-04-23 16:58 | 8.62507 | -71.66617 | 272 ft | 35 kts | 82° |
| 2026-04-23 16:59 | 8.62523 | -71.66508 | 272 ft | 4 kts | 82° |
| 2026-04-23 16:59 | 8.62528 | -71.66470 | 272 ft | 7 kts | 81° |
| 2026-04-23 16:59 | 8.62537 | -71.66415 | 272 ft | 9 kts | 81° |
| 2026-04-23 16:59 | 8.62531 | -71.66365 | 272 ft | 3 kts | 129° |
| 2026-04-23 17:00 | 8.62492 | -71.66341 | 269 ft | 12 kts | 155° |
| 2026-04-23 17:00 | 8.62407 | -71.66314 | 272 ft | 11 kts | 144° |
| 2026-04-23 17:00 | 8.62395 | -71.66270 | 269 ft | 7 kts | 88° |
| 2026-04-23 17:01 | 8.62395 | -71.66265 | 269 ft | 2 kts | 88° |
| 2026-04-23 17:01 | 8.62396 | -71.66241 | 271 ft | 5 kts | 87° |
| 2026-04-23 17:01 | 8.62392 | -71.66218 | 272 ft | 1 kts | 121° |
| 2026-04-23 17:01 | 8.62378 | -71.66213 | 274 ft | 3 kts | 159° |
| 2026-04-23 17:02 | 8.62364 | -71.66207 | 272 ft | 4 kts | 157° |
| 2026-04-23 17:02 | 8.62351 | -71.66205 | 272 ft | 0 kts | 170° |